createdAt,value
2023-07-21T00:02:11.709Z,13.52
2023-07-21T00:04:37.844Z,13.55
2023-07-21T00:07:04.057Z,13.56
2023-07-21T00:09:30.200Z,13.54
2023-07-21T00:11:56.407Z,13.50
2023-07-21T00:14:22.568Z,13.49
2023-07-21T00:16:48.882Z,13.44
2023-07-21T00:19:15.012Z,13.39
2023-07-21T00:21:41.165Z,13.34
2023-07-21T00:24:07.363Z,13.29
2023-07-21T00:26:33.560Z,13.23
2023-07-21T00:28:59.696Z,13.18
2023-07-21T00:31:25.883Z,13.09
2023-07-21T00:33:52.074Z,13.04
2023-07-21T00:36:18.244Z,13.01
2023-07-21T00:38:44.406Z,12.98
2023-07-21T00:41:10.575Z,12.98
2023-07-21T00:43:36.725Z,12.97
2023-07-21T00:46:02.872Z,12.97
2023-07-21T00:48:29.028Z,12.95
2023-07-21T00:50:55.188Z,12.96
2023-07-21T00:53:21.340Z,12.97
2023-07-21T00:55:47.503Z,12.98
2023-07-21T00:58:13.661Z,12.98
2023-07-21T01:00:39.865Z,12.95
2023-07-21T01:03:06.115Z,12.91
2023-07-21T01:05:32.322Z,12.88
2023-07-21T01:07:58.474Z,12.86
2023-07-21T01:10:24.607Z,12.84
2023-07-21T01:12:50.753Z,12.81
2023-07-21T01:15:16.922Z,12.78
2023-07-21T01:17:43.096Z,12.73
2023-07-21T01:20:09.264Z,12.69
2023-07-21T01:22:35.415Z,12.66
2023-07-21T01:25:01.561Z,12.61
2023-07-21T01:27:27.703Z,12.55
2023-07-21T01:29:53.852Z,12.50
2023-07-21T01:32:20.008Z,12.46
2023-07-21T01:34:46.151Z,12.44
2023-07-21T01:37:12.318Z,12.42
2023-07-21T01:39:38.464Z,12.38
2023-07-21T01:42:04.599Z,12.34
2023-07-21T01:44:30.731Z,12.26
2023-07-21T01:46:56.936Z,12.23
2023-07-21T01:49:23.208Z,12.22
2023-07-21T01:51:49.351Z,12.22
2023-07-21T01:54:15.515Z,12.25
2023-07-21T01:56:41.654Z,12.27
2023-07-21T01:59:07.842Z,12.30
2023-07-21T02:01:34.039Z,12.34
2023-07-21T02:04:00.306Z,12.35
2023-07-21T02:06:26.671Z,12.35
2023-07-21T02:08:53.038Z,12.36
2023-07-21T02:11:19.182Z,12.37
2023-07-21T02:13:45.312Z,12.36
2023-07-21T02:16:11.467Z,12.36
2023-07-21T02:18:37.637Z,12.35
2023-07-21T02:21:03.862Z,12.32
2023-07-21T02:23:30.124Z,12.28
2023-07-21T02:25:56.274Z,12.23
2023-07-21T02:28:22.423Z,12.20
2023-07-21T02:30:48.597Z,12.19
2023-07-21T02:33:14.753Z,12.17
2023-07-21T02:35:40.891Z,12.17
2023-07-21T02:38:07.040Z,12.18
2023-07-21T02:40:33.187Z,12.17
2023-07-21T02:42:59.337Z,12.15
2023-07-21T02:45:25.502Z,12.16
2023-07-21T02:47:51.673Z,12.15
2023-07-21T02:50:17.858Z,12.16
2023-07-21T02:52:44.022Z,12.15
2023-07-21T02:55:10.232Z,12.16
2023-07-21T02:57:36.368Z,12.19
2023-07-21T03:00:02.513Z,12.21
2023-07-21T03:02:28.722Z,12.22
2023-07-21T03:04:54.937Z,12.23
2023-07-21T03:07:21.101Z,12.25
2023-07-21T03:09:47.268Z,12.28
2023-07-21T03:12:13.400Z,12.28
2023-07-21T03:14:39.540Z,12.24
2023-07-21T03:17:05.691Z,12.23
2023-07-21T03:19:31.892Z,12.21
2023-07-21T03:21:58.091Z,12.20
2023-07-21T03:24:24.287Z,12.17
2023-07-21T03:26:50.445Z,12.14
2023-07-21T03:29:16.592Z,12.12
2023-07-21T03:31:42.744Z,12.10
2023-07-21T03:34:08.946Z,12.07
2023-07-21T03:36:35.116Z,12.04
2023-07-21T03:39:01.261Z,12.03
2023-07-21T03:41:27.424Z,11.99
2023-07-21T03:43:53.572Z,11.97
2023-07-21T03:46:19.771Z,11.95
2023-07-21T03:48:45.985Z,11.93
2023-07-21T03:51:12.161Z,11.91
2023-07-21T03:53:38.293Z,11.88
2023-07-21T03:56:04.474Z,11.82
2023-07-21T03:58:30.601Z,11.78
2023-07-21T04:00:56.840Z,11.76
2023-07-21T04:03:23.145Z,11.76
2023-07-21T04:05:49.306Z,11.73
2023-07-21T04:08:15.442Z,11.75
2023-07-21T04:10:41.577Z,11.72
2023-07-21T04:13:07.770Z,11.70
2023-07-21T04:15:33.925Z,11.68
2023-07-21T04:18:00.162Z,11.69
2023-07-21T04:20:26.352Z,11.69
2023-07-21T04:22:52.489Z,11.70
2023-07-21T04:25:18.636Z,11.73
2023-07-21T04:27:44.778Z,11.77
2023-07-21T04:30:10.932Z,11.83
2023-07-21T04:32:37.084Z,11.91
2023-07-21T04:35:04.954Z,11.97
2023-07-21T04:37:31.360Z,12.01
2023-07-21T04:39:58.563Z,12.03
2023-07-21T04:42:24.722Z,12.04
2023-07-21T04:44:50.873Z,12.08
2023-07-21T04:47:17.105Z,12.11
2023-07-21T04:49:43.303Z,12.15
2023-07-21T04:52:09.452Z,12.18
2023-07-21T04:54:35.573Z,12.20
2023-07-21T04:57:01.730Z,12.24
2023-07-21T04:59:28.922Z,12.29
2023-07-21T05:01:55.224Z,12.36
2023-07-21T05:04:21.373Z,12.40
2023-07-21T05:06:47.518Z,12.44
2023-07-21T05:09:13.668Z,12.45
2023-07-21T05:11:39.832Z,12.47
2023-07-21T05:14:05.977Z,12.51
2023-07-21T05:16:32.128Z,12.53
2023-07-21T05:18:58.276Z,12.54
2023-07-21T05:21:24.421Z,12.60
2023-07-21T05:23:50.560Z,12.47
2023-07-21T05:26:16.702Z,12.68
2023-07-21T05:28:42.859Z,12.69
2023-07-21T05:31:09.020Z,12.73
2023-07-21T05:33:35.263Z,12.80
2023-07-21T05:36:01.398Z,12.83
2023-07-21T05:38:27.542Z,12.88
2023-07-21T05:40:53.674Z,12.94
2023-07-21T05:43:19.827Z,13.03
2023-07-21T05:45:45.956Z,13.14
2023-07-21T05:48:12.112Z,13.23
2023-07-21T05:50:38.415Z,13.32
2023-07-21T05:53:04.751Z,13.42
2023-07-21T05:55:30.902Z,13.48
2023-07-21T05:57:57.090Z,13.58
2023-07-21T06:00:23.237Z,13.64
2023-07-21T06:02:49.420Z,13.72
2023-07-21T06:05:15.696Z,13.82
2023-07-21T06:07:41.853Z,13.91
2023-07-21T06:10:07.985Z,14.02
2023-07-21T06:12:34.133Z,14.15
2023-07-21T06:15:00.274Z,14.30
2023-07-21T06:17:26.487Z,14.36
2023-07-21T06:19:52.686Z,14.39
2023-07-21T06:22:18.844Z,14.38
2023-07-21T06:24:45.052Z,14.43
2023-07-21T06:27:11.216Z,14.48
2023-07-21T06:29:37.379Z,14.51
2023-07-21T06:32:03.557Z,14.61
2023-07-21T06:34:29.738Z,14.75
2023-07-21T06:36:55.956Z,14.86
2023-07-21T06:39:22.111Z,14.95
2023-07-21T06:41:48.239Z,15.00
2023-07-21T06:44:14.380Z,15.07
2023-07-21T06:46:40.587Z,15.14
2023-07-21T06:49:06.790Z,15.16
2023-07-21T06:51:32.931Z,15.23
2023-07-21T06:53:59.131Z,15.30
2023-07-21T06:56:25.299Z,15.35
2023-07-21T06:58:51.488Z,15.41
2023-07-21T07:01:17.670Z,15.46
2023-07-21T07:03:46.376Z,15.48
2023-07-21T07:06:14.326Z,15.52
2023-07-21T07:08:40.474Z,15.56
2023-07-21T07:11:06.617Z,15.61
2023-07-21T07:13:32.815Z,15.66
2023-07-21T07:15:59.009Z,15.66
2023-07-21T07:18:25.160Z,15.71
2023-07-21T07:20:51.321Z,15.81
2023-07-21T07:23:17.563Z,15.91
2023-07-21T07:25:43.745Z,16.05
2023-07-21T07:28:09.927Z,16.19
2023-07-21T07:30:36.105Z,16.33
2023-07-21T07:33:02.269Z,16.36
2023-07-21T07:35:28.505Z,16.51
2023-07-21T07:37:54.655Z,16.58
2023-07-21T07:40:20.822Z,16.79
2023-07-21T07:42:47.047Z,17.01
2023-07-21T07:45:13.199Z,17.15
2023-07-21T07:47:39.337Z,17.21
2023-07-21T07:50:05.502Z,17.12
2023-07-21T07:52:31.812Z,17.12
2023-07-21T07:54:58.039Z,17.15
2023-07-21T07:57:24.171Z,17.19
2023-07-21T07:59:50.323Z,17.16
2023-07-21T08:02:16.462Z,17.19
2023-07-21T08:04:42.653Z,17.27
2023-07-21T08:07:08.819Z,17.43
2023-07-21T08:09:34.970Z,17.54
2023-07-21T08:12:01.228Z,17.74
2023-07-21T08:14:27.422Z,17.83
2023-07-21T08:16:53.702Z,17.86
2023-07-21T08:19:19.991Z,17.93
2023-07-21T08:21:46.134Z,18.01
2023-07-21T08:24:12.314Z,18.07
2023-07-21T08:26:38.504Z,18.26
2023-07-21T08:29:04.647Z,18.44
2023-07-21T08:31:30.883Z,18.54
2023-07-21T08:33:57.072Z,18.67
2023-07-21T08:36:23.309Z,18.90
2023-07-21T08:38:49.439Z,19.00
2023-07-21T08:41:15.579Z,18.98
2023-07-21T08:43:41.721Z,18.92
2023-07-21T08:46:07.903Z,18.85
2023-07-21T08:48:34.070Z,18.82
2023-07-21T08:51:00.415Z,18.66
2023-07-21T08:53:26.548Z,18.66
2023-07-21T08:55:52.683Z,18.82
2023-07-21T08:58:18.834Z,18.99
2023-07-21T09:00:44.976Z,19.15
2023-07-21T09:03:11.310Z,19.37
2023-07-21T09:05:37.613Z,19.56
2023-07-21T09:08:03.803Z,19.56
2023-07-21T09:10:29.992Z,19.60
2023-07-21T09:12:56.300Z,19.75
2023-07-21T09:15:22.571Z,19.77
2023-07-21T09:17:48.738Z,19.73
2023-07-21T09:20:15.067Z,19.62
2023-07-21T09:22:41.240Z,19.54
2023-07-21T09:25:07.407Z,19.59
2023-07-21T09:27:33.574Z,19.67
2023-07-21T09:29:59.709Z,19.75
2023-07-21T09:32:25.902Z,19.80
2023-07-21T09:34:52.063Z,19.95
2023-07-21T09:37:18.225Z,19.94
2023-07-21T09:39:44.356Z,19.92
2023-07-21T09:42:10.502Z,19.81
2023-07-21T09:44:36.628Z,19.88
2023-07-21T09:47:02.845Z,19.97
2023-07-21T09:49:29.031Z,20.17
2023-07-21T09:51:55.183Z,20.22
2023-07-21T09:54:21.320Z,20.60
2023-07-21T09:56:47.475Z,20.74
2023-07-21T09:59:13.632Z,20.80
2023-07-21T10:01:39.983Z,20.73
2023-07-21T10:04:06.192Z,20.73
2023-07-21T10:06:32.379Z,20.61
2023-07-21T10:08:58.544Z,20.56
2023-07-21T10:11:24.846Z,20.67
2023-07-21T10:13:51.179Z,20.82
2023-07-21T10:16:17.353Z,20.75
2023-07-21T10:18:43.530Z,20.62
2023-07-21T10:21:09.687Z,20.51
2023-07-21T10:23:35.840Z,20.34
2023-07-21T10:26:02.001Z,20.38
2023-07-21T10:28:28.154Z,20.52
2023-07-21T10:30:54.322Z,20.92
2023-07-21T10:33:20.506Z,21.26
2023-07-21T10:35:46.656Z,21.63
2023-07-21T10:38:12.794Z,21.96
2023-07-21T10:40:38.931Z,22.42
2023-07-21T10:43:05.108Z,22.84
2023-07-21T10:45:31.238Z,23.06
2023-07-21T10:47:57.499Z,23.07
2023-07-21T10:50:23.737Z,22.99
2023-07-21T10:52:49.883Z,22.78
2023-07-21T10:55:16.022Z,22.63
2023-07-21T10:57:42.168Z,22.43
2023-07-21T11:00:08.316Z,22.23
2023-07-21T11:02:34.514Z,22.08
2023-07-21T11:05:00.857Z,22.15
2023-07-21T11:07:27.011Z,22.12
2023-07-21T11:09:53.177Z,22.04
2023-07-21T11:12:19.465Z,21.84
2023-07-21T11:14:45.744Z,21.74
2023-07-21T11:17:11.974Z,21.70
2023-07-21T11:19:38.187Z,21.84
2023-07-21T11:22:04.357Z,21.81
2023-07-21T11:24:30.867Z,21.84
2023-07-21T11:26:57.399Z,21.90
2023-07-21T11:29:23.554Z,22.19
2023-07-21T11:31:49.704Z,22.36
2023-07-21T11:34:15.903Z,22.66
2023-07-21T11:36:42.037Z,22.79
2023-07-21T11:39:08.181Z,23.34
2023-07-21T11:41:34.317Z,23.96
2023-07-21T11:44:00.463Z,24.28
2023-07-21T11:46:26.881Z,24.74
2023-07-21T11:48:53.139Z,25.02
2023-07-21T11:51:19.318Z,25.06
2023-07-21T11:53:45.471Z,25.15
2023-07-21T11:56:11.638Z,25.36
2023-07-21T11:58:37.785Z,25.17
2023-07-21T12:01:03.930Z,25.35
2023-07-21T12:03:30.303Z,25.93
2023-07-21T12:05:56.651Z,26.19
2023-07-21T12:08:22.778Z,25.84
2023-07-21T12:10:48.935Z,25.36
2023-07-21T12:13:15.060Z,24.78
2023-07-21T12:15:41.342Z,24.25
2023-07-21T12:18:07.578Z,23.48
2023-07-21T12:20:33.757Z,23.33
2023-07-21T12:22:59.893Z,23.10
2023-07-21T12:25:26.035Z,22.84
2023-07-21T12:27:52.199Z,23.26
2023-07-21T12:30:18.442Z,23.55
2023-07-21T12:32:44.692Z,23.44
2023-07-21T12:35:11.163Z,23.48
2023-07-21T12:37:37.338Z,23.85
2023-07-21T12:40:03.509Z,24.64
2023-07-21T12:42:29.668Z,25.52
2023-07-21T12:44:55.822Z,26.28
2023-07-21T12:47:21.950Z,26.18
2023-07-21T12:49:48.105Z,25.78
2023-07-21T12:52:14.261Z,25.09
2023-07-21T12:54:40.422Z,24.41
2023-07-21T12:57:06.589Z,23.65
2023-07-21T12:59:32.743Z,22.84
2023-07-21T13:01:59.058Z,22.20
2023-07-21T13:04:25.394Z,21.49
2023-07-21T13:06:51.804Z,20.78
2023-07-21T13:09:17.942Z,20.12
2023-07-21T13:11:44.114Z,19.50
2023-07-21T13:14:10.253Z,18.73
2023-07-21T13:16:36.447Z,18.05
2023-07-21T13:19:02.808Z,17.43
2023-07-21T13:21:29.006Z,16.80
2023-07-21T13:23:55.136Z,16.23
2023-07-21T13:26:21.319Z,15.95
2023-07-21T13:28:47.474Z,15.83
2023-07-21T13:31:13.640Z,15.83
2023-07-21T13:33:39.809Z,15.92
2023-07-21T13:36:05.987Z,16.23
2023-07-21T13:38:32.122Z,17.09
2023-07-21T13:40:58.262Z,18.42
2023-07-21T13:43:24.423Z,19.80
2023-07-21T13:45:50.614Z,21.12
2023-07-21T13:48:16.903Z,22.30
2023-07-21T13:50:43.111Z,22.89
2023-07-21T13:53:09.253Z,22.76
2023-07-21T13:55:35.382Z,22.35
2023-07-21T13:58:01.534Z,21.90
2023-07-21T14:00:27.665Z,21.58
2023-07-21T14:02:54.032Z,21.26
2023-07-21T14:05:20.300Z,21.00
2023-07-21T14:07:46.439Z,20.82
2023-07-21T14:10:12.590Z,20.58
2023-07-21T14:12:38.746Z,20.27
2023-07-21T14:15:04.886Z,19.94
2023-07-21T14:17:31.091Z,19.76
2023-07-21T14:19:57.277Z,19.55
2023-07-21T14:22:23.421Z,19.37
2023-07-21T14:24:49.758Z,19.19
2023-07-21T14:27:15.993Z,18.97
2023-07-21T14:29:42.135Z,18.70
2023-07-21T14:32:08.278Z,18.11
2023-07-21T14:34:34.414Z,17.57
2023-07-21T14:37:00.586Z,16.96
2023-07-21T14:39:26.746Z,16.65
2023-07-21T14:41:52.894Z,16.12
2023-07-21T14:44:19.045Z,15.84
2023-07-21T14:46:45.264Z,15.33
2023-07-21T14:49:11.483Z,14.96
2023-07-21T14:51:37.776Z,14.70
2023-07-21T14:54:03.929Z,14.49
2023-07-21T14:56:30.221Z,14.32
2023-07-21T14:58:56.442Z,14.25
2023-07-21T15:01:22.723Z,14.23
2023-07-21T15:03:49.032Z,14.27
2023-07-21T15:06:15.228Z,14.32
2023-07-21T15:08:41.377Z,14.37
2023-07-21T15:11:07.515Z,14.47
2023-07-21T15:13:33.654Z,14.56
2023-07-21T15:15:59.836Z,14.63
2023-07-21T15:18:26.081Z,14.70
2023-07-21T15:20:52.265Z,14.79
2023-07-21T15:23:18.511Z,14.89
2023-07-21T15:25:44.715Z,14.98
2023-07-21T15:28:10.878Z,14.99
2023-07-21T15:30:37.040Z,15.09
2023-07-21T15:33:03.288Z,15.20
2023-07-21T15:35:29.522Z,15.31
2023-07-21T15:37:55.689Z,15.44
2023-07-21T15:40:21.843Z,15.60
2023-07-21T15:42:48.285Z,15.73
2023-07-21T15:45:14.482Z,15.83
2023-07-21T15:47:45.152Z,15.95
2023-07-21T15:50:11.362Z,16.15
2023-07-21T15:52:37.527Z,16.31
2023-07-21T15:55:03.862Z,16.55
2023-07-21T15:57:30.008Z,16.70
2023-07-21T15:59:56.204Z,16.83
2023-07-21T16:02:22.489Z,16.97
2023-07-21T16:04:48.757Z,17.07
2023-07-21T16:07:14.946Z,17.08
2023-07-21T16:09:41.106Z,17.04
2023-07-21T16:12:07.460Z,16.98
2023-07-21T16:14:33.619Z,16.88
2023-07-21T16:16:59.776Z,16.82
2023-07-21T16:19:25.959Z,16.79
2023-07-21T16:21:52.130Z,16.79
2023-07-21T16:24:18.327Z,16.86
2023-07-21T16:26:44.472Z,16.95
2023-07-21T16:29:10.614Z,16.97
2023-07-21T16:31:36.813Z,16.99
2023-07-21T16:34:02.984Z,16.95
2023-07-21T16:36:29.143Z,16.92
2023-07-21T16:38:55.283Z,16.93
2023-07-21T16:41:21.420Z,16.95
2023-07-21T16:43:47.567Z,16.84
2023-07-21T16:46:13.736Z,16.73
2023-07-21T16:48:39.923Z,16.51
2023-07-21T16:51:06.073Z,16.32
2023-07-21T16:53:32.340Z,16.18
2023-07-21T16:55:58.480Z,16.11
2023-07-21T16:58:25.714Z,16.06
2023-07-21T17:00:53.697Z,16.03
2023-07-21T17:03:19.971Z,16.03
2023-07-21T17:05:46.224Z,16.01
2023-07-21T17:08:12.352Z,15.97
2023-07-21T17:10:38.515Z,15.92
2023-07-21T17:13:04.690Z,15.84
2023-07-21T17:15:30.871Z,15.73
2023-07-21T17:17:57.029Z,15.68
2023-07-21T17:20:23.268Z,15.64
2023-07-21T17:22:49.518Z,15.59
2023-07-21T17:25:15.740Z,15.54
2023-07-21T17:27:41.931Z,15.49
2023-07-21T17:30:08.087Z,15.44
2023-07-21T17:32:34.344Z,15.39
2023-07-21T17:35:00.565Z,15.34
2023-07-21T17:37:26.817Z,15.35
2023-07-21T17:39:52.981Z,15.37
2023-07-21T17:42:19.135Z,15.41
2023-07-21T17:44:45.307Z,15.47
2023-07-21T17:47:11.509Z,15.63
2023-07-21T17:49:37.631Z,15.87
2023-07-21T17:52:03.867Z,16.08
2023-07-21T17:54:30.095Z,16.19
2023-07-21T17:56:56.792Z,16.28
2023-07-21T17:59:22.939Z,16.33
2023-07-21T18:01:49.138Z,16.34
2023-07-21T18:04:15.381Z,16.27
2023-07-21T18:06:41.571Z,16.24
2023-07-21T18:09:07.731Z,16.17
2023-07-21T18:11:33.878Z,16.07
2023-07-21T18:14:00.006Z,15.99
2023-07-21T18:16:26.291Z,15.90
2023-07-21T18:18:52.537Z,15.77
2023-07-21T18:21:18.684Z,15.69
2023-07-21T18:23:44.859Z,15.64
2023-07-21T18:26:11.012Z,15.46
2023-07-21T18:28:37.161Z,15.52
2023-07-21T18:31:03.325Z,15.49
2023-07-21T18:33:29.537Z,15.51
2023-07-21T18:35:55.680Z,15.53
2023-07-21T18:38:21.810Z,15.55
2023-07-21T18:40:47.930Z,15.55
2023-07-21T18:43:14.076Z,15.52
2023-07-21T18:45:40.208Z,15.48
2023-07-21T18:48:06.428Z,15.47
2023-07-21T18:50:32.578Z,15.42
2023-07-21T18:52:58.729Z,15.34
2023-07-21T18:55:24.863Z,15.28
2023-07-21T18:57:51.023Z,15.23
2023-07-21T19:00:17.263Z,15.17
2023-07-21T19:02:43.453Z,15.09
2023-07-21T19:05:09.799Z,15.00
2023-07-21T19:07:35.980Z,14.92
2023-07-21T19:10:02.122Z,14.86
2023-07-21T19:12:28.253Z,14.79
2023-07-21T19:14:54.414Z,14.73
2023-07-21T19:17:20.643Z,14.69
2023-07-21T19:19:46.937Z,14.67
2023-07-21T19:22:13.077Z,14.66
2023-07-21T19:24:39.411Z,14.65
2023-07-21T19:27:05.596Z,14.63
2023-07-21T19:29:31.756Z,14.60
2023-07-21T19:31:57.888Z,14.58
2023-07-21T19:34:24.021Z,14.51
2023-07-21T19:36:50.159Z,14.35
2023-07-21T19:39:16.314Z,14.09
2023-07-21T19:41:42.463Z,13.71
2023-07-21T19:44:08.623Z,13.29
2023-07-21T19:46:34.809Z,12.95
2023-07-21T19:49:01.005Z,12.73
2023-07-21T19:51:27.353Z,12.57
2023-07-21T19:53:53.712Z,12.46
2023-07-21T19:56:19.867Z,12.36
2023-07-21T19:58:46.211Z,12.30
2023-07-21T20:01:12.419Z,12.24
2023-07-21T20:03:41.246Z,12.17
2023-07-21T20:06:08.151Z,12.11
2023-07-21T20:08:34.363Z,12.01
2023-07-21T20:11:00.506Z,11.92
2023-07-21T20:13:26.645Z,11.86
2023-07-21T20:15:52.792Z,11.78
2023-07-21T20:18:18.938Z,11.67
2023-07-21T20:20:45.075Z,11.61
2023-07-21T20:23:11.220Z,11.55
2023-07-21T20:25:37.378Z,11.51
2023-07-21T20:28:03.564Z,11.46
2023-07-21T20:30:29.707Z,11.40
2023-07-21T20:32:55.905Z,11.36
2023-07-21T20:35:22.061Z,11.32
2023-07-21T20:37:48.196Z,11.26
2023-07-21T20:40:14.362Z,11.21
2023-07-21T20:42:40.491Z,11.15
2023-07-21T20:45:06.656Z,11.11
2023-07-21T20:47:32.815Z,11.06
2023-07-21T20:49:58.962Z,11.02
2023-07-21T20:52:25.090Z,10.97
2023-07-21T20:54:51.430Z,10.92
2023-07-21T20:57:17.558Z,10.86
2023-07-21T20:59:46.636Z,10.81
2023-07-21T21:02:13.248Z,10.78
2023-07-21T21:04:39.394Z,10.73
2023-07-21T21:07:05.531Z,10.70
2023-07-21T21:09:31.688Z,10.67
2023-07-21T21:11:57.850Z,10.64
2023-07-21T21:14:24.027Z,10.61
2023-07-21T21:16:50.275Z,10.59
2023-07-21T21:19:16.514Z,10.58
2023-07-21T21:21:42.668Z,10.55
2023-07-21T21:24:08.868Z,10.54
2023-07-21T21:26:35.060Z,10.51
2023-07-21T21:29:01.204Z,10.48
2023-07-21T21:31:27.398Z,10.45
2023-07-21T21:33:53.585Z,10.42
2023-07-21T21:36:19.717Z,10.37
2023-07-21T21:38:45.876Z,10.34
2023-07-21T21:41:12.106Z,10.28
2023-07-21T21:43:38.301Z,10.25
2023-07-21T21:46:04.570Z,10.21
2023-07-21T21:48:30.728Z,10.16
2023-07-21T21:50:56.871Z,10.15
2023-07-21T21:53:23.041Z,10.12
2023-07-21T21:55:49.182Z,10.11
2023-07-21T21:58:15.318Z,10.08
2023-07-21T22:00:41.740Z,10.06
2023-07-21T22:03:08.212Z,10.04
2023-07-21T22:05:34.456Z,10.02
2023-07-21T22:08:00.596Z,9.98
2023-07-21T22:10:26.736Z,9.94
2023-07-21T22:12:52.861Z,9.89
2023-07-21T22:15:19.001Z,9.82
2023-07-21T22:17:45.207Z,9.78
2023-07-21T22:20:12.215Z,9.71
2023-07-21T22:22:38.553Z,9.67
2023-07-21T22:25:04.857Z,9.64
2023-07-21T22:27:31.040Z,9.59
2023-07-21T22:29:57.234Z,9.56
2023-07-21T22:32:23.417Z,9.53
2023-07-21T22:34:49.547Z,9.51
2023-07-21T22:37:15.706Z,9.48
2023-07-21T22:39:41.841Z,9.43
2023-07-21T22:42:07.986Z,9.40
2023-07-21T22:44:34.121Z,9.37
2023-07-21T22:47:00.263Z,9.34
2023-07-21T22:49:26.399Z,9.29
2023-07-21T22:51:52.557Z,9.26
2023-07-21T22:54:18.686Z,9.23
2023-07-21T22:56:44.828Z,9.20
2023-07-21T22:59:10.961Z,9.18
2023-07-21T23:01:37.165Z,9.16
2023-07-21T23:04:03.321Z,9.14
2023-07-21T23:06:29.755Z,9.15
2023-07-21T23:08:56.024Z,9.17
2023-07-21T23:11:22.197Z,9.20
2023-07-21T23:13:48.337Z,9.21
2023-07-21T23:16:14.546Z,9.24
2023-07-21T23:18:40.738Z,9.25
2023-07-21T23:21:06.880Z,9.28
2023-07-21T23:23:33.024Z,9.32
2023-07-21T23:25:59.215Z,9.34
2023-07-21T23:28:25.366Z,9.38
2023-07-21T23:30:51.503Z,9.38
2023-07-21T23:33:17.672Z,9.37
2023-07-21T23:35:43.814Z,9.34
2023-07-21T23:38:09.968Z,9.31
2023-07-21T23:40:36.093Z,9.29
2023-07-21T23:43:02.233Z,9.27
2023-07-21T23:45:28.364Z,9.26
2023-07-21T23:47:54.605Z,9.24
2023-07-21T23:50:20.749Z,9.23
2023-07-21T23:52:46.891Z,9.22
2023-07-21T23:55:13.038Z,9.20
2023-07-21T23:57:39.239Z,9.17
